createdAt,value
2023-01-01T00:00:01.709Z,15.28
2023-01-01T00:15:02.348Z,15.39
2023-01-01T00:30:02.069Z,15.43
2023-01-01T00:45:01.756Z,15.48
2023-01-01T01:00:02.366Z,15.64
2023-01-01T01:15:02.007Z,15.52
2023-01-01T01:30:01.709Z,15.56
2023-01-01T01:45:02.361Z,15.6
2023-01-01T02:00:08.633Z,15.59
2023-01-01T02:15:02.425Z,15.55
2023-01-01T02:30:02.038Z,15.49
2023-01-01T02:45:01.704Z,15.54
2023-01-01T03:00:02.364Z,15.43
2023-01-01T03:15:01.949Z,15.39
2023-01-01T03:30:01.685Z,15.42
2023-01-01T03:45:02.325Z,15.25
2023-01-01T04:00:01.957Z,15.21
2023-01-01T04:15:01.554Z,15.15
2023-01-01T04:30:02.188Z,15.12
2023-01-01T04:45:01.823Z,15.04
2023-01-01T05:00:02.428Z,15.01
2023-01-01T05:15:02.059Z,14.97
2023-01-01T05:30:02.167Z,14.92
2023-01-01T05:45:01.761Z,14.82
2023-01-01T06:00:02.451Z,14.78
2023-01-01T06:15:02.094Z,14.68
2023-01-01T06:30:01.800Z,14.63
2023-01-01T06:45:02.461Z,14.68
2023-01-01T07:00:02.140Z,14.65
2023-01-01T07:15:01.739Z,14.59
2023-01-01T07:30:02.411Z,14.54
2023-01-01T07:45:02.007Z,14.34
2023-01-01T08:00:01.610Z,14.27
2023-01-01T08:15:02.250Z,14.22
2023-01-01T08:30:01.996Z,14.13
2023-01-01T08:45:01.674Z,13.81
2023-01-01T09:00:02.303Z,13.46
2023-01-01T09:15:01.956Z,13.33
2023-01-01T09:30:01.686Z,13.21
2023-01-01T09:45:02.287Z,13.15
2023-01-01T10:00:01.875Z,13.07
2023-01-01T10:15:02.488Z,13.01
2023-01-01T10:30:04.748Z,12.89
2023-01-01T10:45:01.770Z,12.92
2023-01-01T11:00:02.363Z,12.87
2023-01-01T11:15:02.011Z,12.88
2023-01-01T11:30:01.763Z,12.88
2023-01-01T11:45:02.392Z,12.74
2023-01-01T12:00:01.997Z,12.69
2023-01-01T12:15:01.580Z,12.77
2023-01-01T12:30:02.190Z,12.77
2023-01-01T12:45:01.796Z,12.75
2023-01-01T13:00:02.383Z,12.79
2023-01-01T13:15:02.006Z,12.81
2023-01-01T13:30:01.695Z,12.88
2023-01-01T13:45:02.293Z,12.88
2023-01-01T14:00:01.921Z,12.9
2023-01-01T14:15:02.514Z,12.88
2023-01-01T14:30:02.183Z,12.84
2023-01-01T14:45:01.822Z,12.81
2023-01-01T15:00:02.540Z,12.75
2023-01-01T15:15:02.225Z,12.72
2023-01-01T15:30:01.837Z,12.71
2023-01-01T15:45:02.421Z,12.68
2023-01-01T16:00:02.031Z,12.62
2023-01-01T16:15:01.629Z,12.61
2023-01-01T16:30:02.430Z,12.58
2023-01-01T16:45:02.168Z,12.59
2023-01-01T17:00:01.851Z,12.55
2023-01-01T17:15:02.511Z,12.56
2023-01-01T17:30:02.179Z,12.56
2023-01-01T17:45:01.842Z,12.6
2023-01-01T18:00:02.567Z,12.61
2023-01-01T18:15:02.236Z,12.62
2023-01-01T18:30:01.928Z,12.59
2023-01-01T18:45:01.570Z,12.58
2023-01-01T19:00:02.145Z,12.55
2023-01-01T19:15:01.759Z,12.49
2023-01-01T19:30:02.397Z,12.41
2023-01-01T19:45:01.996Z,12.31
2023-01-01T20:00:01.648Z,12.27
2023-01-01T20:15:02.270Z,12.2
2023-01-01T20:30:01.944Z,12.15
2023-01-01T20:45:01.600Z,12.19
2023-01-01T21:00:02.278Z,12.19
2023-01-01T21:15:01.933Z,12.12
2023-01-01T21:30:01.642Z,12.14
2023-01-01T21:45:02.286Z,12.09
2023-01-01T22:00:01.884Z,12.09
2023-01-01T22:15:02.510Z,12.05
2023-01-01T22:30:02.125Z,12.05
2023-01-01T22:45:01.774Z,12.04
2023-01-01T23:00:02.473Z,12.06
2023-01-01T23:15:02.123Z,12.08
2023-01-01T23:30:01.819Z,12.04
2023-01-01T23:45:02.437Z,12.06
